createdAt,value
2023-05-04T00:00:00.313Z,15.81
2023-05-04T00:02:28.149Z,15.23
2023-05-04T00:04:55.872Z,15.18
2023-05-04T00:07:23.271Z,15.43
2023-05-04T00:09:50.823Z,15.06
2023-05-04T00:12:18.478Z,15.62
2023-05-04T00:14:45.806Z,15.83
2023-05-04T00:17:13.192Z,16.06
2023-05-04T00:19:42.321Z,15.62
2023-05-04T00:22:09.817Z,15.66
2023-05-04T00:24:37.192Z,15.58
2023-05-04T00:27:04.817Z,15.14
2023-05-04T00:29:32.382Z,15.52
2023-05-04T00:31:59.781Z,15.33
2023-05-04T00:34:27.475Z,15.79
2023-05-04T00:36:55.953Z,15.77
2023-05-04T00:39:23.327Z,15.93
2023-05-04T00:41:50.973Z,16.10
2023-05-04T00:44:18.355Z,16.43
2023-05-04T00:46:46.025Z,15.70
2023-05-04T00:49:13.706Z,15.93
2023-05-04T00:51:41.209Z,15.95
2023-05-04T00:54:08.554Z,15.30
2023-05-04T00:56:42.149Z,15.69
2023-05-04T00:59:09.749Z,16.01
2023-05-04T01:01:37.498Z,15.94
2023-05-04T01:04:05.296Z,15.68
2023-05-04T01:06:44.099Z,15.74
2023-05-04T01:09:17.195Z,15.82
2023-05-04T01:11:48.944Z,15.97
2023-05-04T01:14:17.072Z,16.07
2023-05-04T01:16:44.472Z,16.52
2023-05-04T01:19:11.862Z,16.42
2023-05-04T01:21:39.615Z,16.16
2023-05-04T01:24:06.979Z,16.49
2023-05-04T01:26:39.639Z,16.27
2023-05-04T01:29:18.521Z,16.25
2023-05-04T01:31:46.451Z,16.39
2023-05-04T01:34:14.324Z,16.06
2023-05-04T01:36:41.772Z,16.00
2023-05-04T01:39:09.928Z,15.64
2023-05-04T01:41:37.594Z,16.04
2023-05-04T01:44:05.464Z,16.06
2023-05-04T01:46:32.840Z,15.91
2023-05-04T01:49:00.723Z,16.33
2023-05-04T01:51:28.062Z,16.08
2023-05-04T01:53:55.683Z,15.88
2023-05-04T01:56:23.359Z,16.23
2023-05-04T01:58:52.294Z,15.96
2023-05-04T02:01:19.706Z,16.20
2023-05-04T02:03:48.633Z,15.91
2023-05-04T02:06:16.207Z,16.09
2023-05-04T02:08:43.579Z,16.23
2023-05-04T02:11:11.258Z,15.94
2023-05-04T02:13:39.137Z,16.09
2023-05-04T02:16:06.837Z,15.69
2023-05-04T02:18:34.557Z,16.10
2023-05-04T02:21:01.938Z,15.84
2023-05-04T02:23:29.737Z,15.76
2023-05-04T02:25:59.114Z,15.66
2023-05-04T02:28:26.494Z,15.91
2023-05-04T02:30:53.879Z,15.88
2023-05-04T02:33:21.515Z,15.89
2023-05-04T02:35:48.887Z,15.89
2023-05-04T02:38:16.534Z,16.01
2023-05-04T02:40:43.939Z,15.70
2023-05-04T02:43:11.649Z,15.31
2023-05-04T02:45:39.309Z,14.92
2023-05-04T02:48:06.763Z,14.73
2023-05-04T02:50:34.147Z,15.20
2023-05-04T02:53:01.768Z,15.07
2023-05-04T02:55:29.305Z,15.39
2023-05-04T02:57:56.677Z,15.39
2023-05-04T03:00:24.564Z,15.09
2023-05-04T03:02:51.992Z,15.14
2023-05-04T03:05:19.413Z,15.25
2023-05-04T03:07:47.071Z,15.24
2023-05-04T03:10:14.456Z,15.46
2023-05-04T03:12:41.884Z,15.69
2023-05-04T03:15:09.641Z,15.35
2023-05-04T03:17:37.261Z,15.67
2023-05-04T03:20:05.845Z,15.49
2023-05-04T03:22:34.014Z,15.60
2023-05-04T03:25:01.646Z,15.80
2023-05-04T03:27:29.762Z,15.29
2023-05-04T03:29:57.580Z,15.73
2023-05-04T03:32:26.450Z,15.48
2023-05-04T03:34:53.946Z,15.29
2023-05-04T03:37:22.968Z,15.63
2023-05-04T03:39:50.376Z,15.59
2023-05-04T03:42:17.772Z,15.50
2023-05-04T03:44:46.573Z,15.48
2023-05-04T03:47:14.008Z,15.31
2023-05-04T03:49:41.367Z,15.33
2023-05-04T03:52:08.946Z,15.73
2023-05-04T03:54:37.738Z,14.52
2023-05-04T03:57:05.210Z,14.78
2023-05-04T03:59:33.281Z,14.89
2023-05-04T04:02:02.669Z,15.13
2023-05-04T04:04:30.403Z,14.87
2023-05-04T04:06:58.048Z,15.07
2023-05-04T04:09:25.806Z,15.23
2023-05-04T04:11:53.454Z,14.95
2023-05-04T04:14:20.824Z,15.35
2023-05-04T04:16:48.199Z,14.90
2023-05-04T04:19:15.843Z,15.43
2023-05-04T04:21:43.192Z,15.26
2023-05-04T04:24:11.138Z,15.46
2023-05-04T04:26:38.942Z,15.37
2023-05-04T04:29:06.350Z,15.42
2023-05-04T04:31:33.772Z,14.88
2023-05-04T04:34:01.398Z,15.37
2023-05-04T04:36:28.807Z,15.31
2023-05-04T04:38:56.384Z,15.62
2023-05-04T04:41:25.042Z,15.56
2023-05-04T04:43:52.475Z,15.69
2023-05-04T04:46:19.902Z,15.75
2023-05-04T04:48:47.897Z,16.34
2023-05-04T04:51:15.292Z,16.19
2023-05-04T04:53:42.624Z,15.96
2023-05-04T04:56:10.547Z,16.60
2023-05-04T04:58:37.961Z,16.21
2023-05-04T05:01:05.539Z,16.70
2023-05-04T05:03:33.835Z,16.46
2023-05-04T05:06:04.074Z,16.82
2023-05-04T05:08:32.801Z,16.96
2023-05-04T05:11:00.395Z,17.08
2023-05-04T05:13:27.748Z,16.39
2023-05-04T05:15:55.106Z,16.64
2023-05-04T05:18:23.249Z,17.15
2023-05-04T05:20:50.737Z,17.53
2023-05-04T05:23:18.090Z,16.95
2023-05-04T05:25:45.772Z,17.19
2023-05-04T05:28:16.408Z,17.68
2023-05-04T05:30:44.169Z,17.60
2023-05-04T05:33:12.023Z,17.56
2023-05-04T05:35:39.782Z,18.08
2023-05-04T05:38:07.159Z,18.30
2023-05-04T05:40:34.814Z,18.01
2023-05-04T05:43:02.656Z,18.83
2023-05-04T05:45:30.210Z,19.07
2023-05-04T05:47:57.852Z,19.26
2023-05-04T05:50:25.234Z,19.31
2023-05-04T05:52:52.654Z,19.65
2023-05-04T05:55:20.291Z,19.57
2023-05-04T05:57:47.797Z,19.99
2023-05-04T06:00:15.855Z,20.06
2023-05-04T06:02:43.714Z,20.00
2023-05-04T06:05:11.685Z,20.63
2023-05-04T06:07:39.548Z,20.40
2023-05-04T06:10:07.588Z,20.95
2023-05-04T06:12:35.522Z,20.83
2023-05-04T06:15:02.955Z,21.05
2023-05-04T06:17:31.144Z,20.93
2023-05-04T06:19:58.529Z,21.16
2023-05-04T06:22:25.875Z,21.70
2023-05-04T06:24:56.790Z,21.93
2023-05-04T06:27:28.949Z,22.45
2023-05-04T06:29:56.622Z,23.01
2023-05-04T06:32:24.012Z,23.50
2023-05-04T06:34:57.447Z,24.72
2023-05-04T06:37:26.449Z,22.86
2023-05-04T06:39:54.679Z,22.30
2023-05-04T06:42:22.067Z,23.39
2023-05-04T06:44:51.350Z,21.80
2023-05-04T06:47:18.717Z,21.78
2023-05-04T06:49:46.043Z,22.13
2023-05-04T06:52:14.418Z,23.04
2023-05-04T06:54:41.895Z,20.75
2023-05-04T06:57:09.268Z,20.27
2023-05-04T06:59:37.032Z,21.01
2023-05-04T07:02:04.666Z,21.23
2023-05-04T07:04:32.080Z,22.89
2023-05-04T07:06:59.705Z,23.54
2023-05-04T07:09:27.305Z,23.85
2023-05-04T07:11:54.667Z,24.73
2023-05-04T07:14:22.328Z,24.63
2023-05-04T07:16:49.728Z,26.18
2023-05-04T07:19:17.552Z,26.54
2023-05-04T07:21:45.217Z,27.49
2023-05-04T07:24:12.574Z,26.19
2023-05-04T07:26:39.934Z,27.71
2023-05-04T07:29:07.600Z,28.50
2023-05-04T07:31:35.270Z,29.13
2023-05-04T07:34:02.675Z,30.63
2023-05-04T07:36:30.698Z,31.77
2023-05-04T07:38:58.102Z,32.68
2023-05-04T07:41:26.403Z,33.81
2023-05-04T07:43:54.032Z,33.22
2023-05-04T07:46:21.437Z,33.31
2023-05-04T07:48:49.414Z,31.41
2023-05-04T07:51:17.073Z,32.03
2023-05-04T07:53:44.418Z,33.21
2023-05-04T07:56:12.670Z,33.23
2023-05-04T07:58:41.423Z,33.82
2023-05-04T08:01:08.836Z,33.61
2023-05-04T08:03:36.556Z,35.21
2023-05-04T08:06:03.935Z,35.84
2023-05-04T08:08:31.333Z,35.70
2023-05-04T08:11:11.566Z,33.12
2023-05-04T08:13:40.276Z,34.78
2023-05-04T08:16:09.428Z,36.62
2023-05-04T08:18:37.179Z,37.42
2023-05-04T08:21:05.054Z,36.91
2023-05-04T08:23:33.522Z,36.48
2023-05-04T08:26:04.337Z,35.48
2023-05-04T08:28:40.476Z,36.57
2023-05-04T08:31:08.269Z,37.19
2023-05-04T08:33:35.628Z,36.93
2023-05-04T08:36:04.462Z,36.21
2023-05-04T08:38:32.205Z,37.00
2023-05-04T08:41:05.437Z,35.19
2023-05-04T08:43:36.779Z,37.58
2023-05-04T08:46:04.856Z,37.98
2023-05-04T08:48:35.484Z,35.92
2023-05-04T08:51:04.348Z,35.14
2023-05-04T08:53:31.951Z,35.43
2023-05-04T08:56:04.682Z,34.34
2023-05-04T08:58:32.139Z,33.52
2023-05-04T09:00:59.875Z,32.97
2023-05-04T09:03:28.007Z,32.47
2023-05-04T09:05:55.519Z,33.07
2023-05-04T09:08:23.148Z,31.94
2023-05-04T09:10:50.493Z,31.56
2023-05-04T09:13:18.026Z,31.98
2023-05-04T09:15:55.781Z,32.66
2023-05-04T09:18:23.491Z,34.68
2023-05-04T09:20:51.256Z,33.01
2023-05-04T09:23:18.757Z,33.30
2023-05-04T09:25:49.812Z,31.30
2023-05-04T09:28:18.211Z,29.77
2023-05-04T09:30:46.918Z,29.67
2023-05-04T09:33:17.624Z,27.83
2023-05-04T09:35:45.494Z,27.29
2023-05-04T09:38:24.112Z,27.75
2023-05-04T09:40:52.179Z,25.29
2023-05-04T09:43:19.536Z,25.02
2023-05-04T09:45:47.359Z,24.80
2023-05-04T09:48:29.377Z,25.09
2023-05-04T09:51:00.972Z,25.78
2023-05-04T09:53:29.638Z,24.85
2023-05-04T09:56:11.238Z,25.02
2023-05-04T09:58:39.023Z,25.76
2023-05-04T10:01:06.450Z,25.98
2023-05-04T10:03:34.095Z,26.38
2023-05-04T10:06:04.319Z,26.00
2023-05-04T10:08:32.685Z,25.55
2023-05-04T10:11:00.430Z,25.12
2023-05-04T10:13:28.136Z,23.75
2023-05-04T10:16:01.442Z,24.34
2023-05-04T10:19:03.898Z,23.18
2023-05-04T10:21:56.173Z,23.80
2023-05-04T10:24:39.380Z,24.35
2023-05-04T10:27:19.376Z,24.00
2023-05-04T10:29:50.834Z,24.20
2023-05-04T10:32:20.067Z,24.49
2023-05-04T10:34:47.988Z,24.67
2023-05-04T10:37:19.453Z,25.21
2023-05-04T10:39:53.689Z,24.65
2023-05-04T10:42:21.474Z,24.85
2023-05-04T10:44:55.563Z,25.55
2023-05-04T10:47:33.402Z,25.11
2023-05-04T10:50:04.674Z,24.98
2023-05-04T10:52:33.020Z,25.52
2023-05-04T10:55:05.513Z,25.40
2023-05-04T10:57:33.340Z,25.28
2023-05-04T11:00:01.657Z,25.63
2023-05-04T11:02:31.662Z,25.94
2023-05-04T11:05:02.059Z,25.75
2023-05-04T11:07:37.539Z,25.34
2023-05-04T11:10:06.078Z,25.88
2023-05-04T11:12:33.557Z,26.46
2023-05-04T11:15:10.183Z,26.06
2023-05-04T11:17:53.290Z,26.41
2023-05-04T11:20:24.697Z,26.05
2023-05-04T11:22:53.110Z,26.10
2023-05-04T11:25:29.664Z,26.55
2023-05-04T11:27:58.412Z,25.88
2023-05-04T11:30:53.286Z,25.65
2023-05-04T11:33:22.707Z,25.93
2023-05-04T11:35:50.206Z,24.93
2023-05-04T11:38:19.963Z,24.07
2023-05-04T11:40:47.828Z,24.55
2023-05-04T11:43:15.200Z,24.15
2023-05-04T11:45:42.669Z,24.01
2023-05-04T11:48:10.375Z,23.38
2023-05-04T11:50:37.790Z,23.46
2023-05-04T11:53:09.633Z,23.22
2023-05-04T11:55:38.056Z,22.97
2023-05-04T11:58:09.787Z,22.19
2023-05-04T12:00:41.651Z,22.68
2023-05-04T12:03:16.615Z,22.97
2023-05-04T12:05:48.437Z,22.56
2023-05-04T12:08:26.352Z,22.72
2023-05-04T12:11:09.093Z,22.55
2023-05-04T12:13:36.851Z,22.53
2023-05-04T12:16:11.042Z,22.29
2023-05-04T12:18:38.767Z,22.41
2023-05-04T12:21:10.442Z,22.78
2023-05-04T12:23:38.697Z,22.09
2023-05-04T12:26:06.776Z,22.73
2023-05-04T12:28:37.676Z,22.63
2023-05-04T12:31:05.225Z,22.68
2023-05-04T12:33:33.289Z,22.52
2023-05-04T12:36:01.319Z,22.28
2023-05-04T12:38:29.055Z,22.14
2023-05-04T12:40:59.040Z,21.92
2023-05-04T12:43:26.955Z,22.56
2023-05-04T12:45:54.586Z,22.95
2023-05-04T12:48:22.424Z,22.55
2023-05-04T12:50:50.874Z,22.77
2023-05-04T12:53:18.539Z,22.84
2023-05-04T12:55:46.698Z,22.87
2023-05-04T12:58:14.099Z,22.66
2023-05-04T13:00:41.542Z,23.05
2023-05-04T13:03:09.731Z,23.21
2023-05-04T13:05:37.250Z,23.60
2023-05-04T13:08:04.816Z,22.95
2023-05-04T13:10:32.949Z,24.03
2023-05-04T13:13:00.453Z,22.93
2023-05-04T13:15:28.094Z,23.83
2023-05-04T13:17:55.731Z,24.13
2023-05-04T13:20:23.148Z,24.72
2023-05-04T13:22:51.667Z,24.43
2023-05-04T13:25:19.366Z,24.21
2023-05-04T13:27:46.757Z,24.23
2023-05-04T13:30:14.221Z,24.56
2023-05-04T13:32:42.081Z,23.03
2023-05-04T13:35:09.771Z,22.86
2023-05-04T13:37:38.199Z,23.07
2023-05-04T13:40:06.218Z,22.14
2023-05-04T13:42:36.369Z,22.36
2023-05-04T13:45:05.565Z,21.71
2023-05-04T13:47:34.148Z,22.25
2023-05-04T13:50:02.095Z,21.68
2023-05-04T13:52:31.954Z,21.33
2023-05-04T13:55:00.257Z,21.26
2023-05-04T13:57:28.039Z,21.36
2023-05-04T14:00:06.328Z,21.88
2023-05-04T14:02:37.956Z,21.42
2023-05-04T14:05:06.888Z,21.92
2023-05-04T14:07:34.630Z,21.34
2023-05-04T14:10:02.473Z,21.70
2023-05-04T14:12:30.257Z,22.44
2023-05-04T14:14:58.965Z,22.61
2023-05-04T14:17:26.474Z,22.64
2023-05-04T14:19:54.093Z,22.83
2023-05-04T14:22:21.430Z,22.29
2023-05-04T14:24:49.435Z,22.48
2023-05-04T14:27:17.575Z,22.86
2023-05-04T14:29:47.622Z,22.30
2023-05-04T14:32:15.537Z,22.45
2023-05-04T14:34:43.208Z,22.36
2023-05-04T14:37:10.570Z,22.57
2023-05-04T14:39:39.415Z,22.24
2023-05-04T14:42:07.058Z,22.11
2023-05-04T14:44:34.465Z,22.45
2023-05-04T14:47:04.836Z,22.19
2023-05-04T14:49:37.165Z,21.97
2023-05-04T14:52:05.131Z,22.09
2023-05-04T14:54:32.629Z,22.45
2023-05-04T14:57:00.316Z,22.35
2023-05-04T14:59:27.790Z,22.34
2023-05-04T15:01:55.741Z,21.76
2023-05-04T15:04:23.521Z,21.67
2023-05-04T15:06:52.340Z,21.74
2023-05-04T15:09:19.744Z,21.90
2023-05-04T15:11:48.559Z,21.75
2023-05-04T15:14:16.293Z,22.10
2023-05-04T15:16:43.703Z,22.09
2023-05-04T15:19:11.313Z,21.68
2023-05-04T15:21:38.724Z,21.56
2023-05-04T15:24:06.154Z,21.62
2023-05-04T15:26:34.632Z,21.93
2023-05-04T15:29:02.111Z,21.70
2023-05-04T15:31:29.594Z,20.64
2023-05-04T15:33:57.239Z,21.07
2023-05-04T15:36:24.762Z,21.04
2023-05-04T15:38:52.152Z,21.40
2023-05-04T15:41:19.804Z,20.52
2023-05-04T15:43:47.192Z,21.15
2023-05-04T15:46:14.590Z,21.30
2023-05-04T15:48:42.553Z,20.98
2023-05-04T15:51:11.213Z,20.91
2023-05-04T15:53:38.797Z,21.05
2023-05-04T15:56:06.525Z,21.14
2023-05-04T15:58:33.931Z,21.34
2023-05-04T16:01:04.064Z,21.10
2023-05-04T16:03:32.247Z,21.30
2023-05-04T16:05:59.801Z,21.17
2023-05-04T16:08:27.477Z,21.36
2023-05-04T16:10:55.925Z,20.93
2023-05-04T16:13:23.321Z,20.57
2023-05-04T16:15:51.330Z,20.27
2023-05-04T16:18:19.026Z,20.90
2023-05-04T16:20:47.229Z,20.71
2023-05-04T16:23:15.763Z,20.82
2023-05-04T16:25:43.515Z,20.69
2023-05-04T16:28:11.171Z,20.23
2023-05-04T16:30:38.654Z,20.07
2023-05-04T16:33:06.345Z,20.63
2023-05-04T16:35:34.485Z,20.77
2023-05-04T16:38:01.985Z,20.56
2023-05-04T16:40:30.767Z,20.78
2023-05-04T16:42:58.607Z,20.68
2023-05-04T16:45:31.197Z,20.63
2023-05-04T16:47:58.973Z,21.22
2023-05-04T16:50:26.433Z,21.03
2023-05-04T16:52:53.861Z,20.86
2023-05-04T16:55:21.732Z,20.66
2023-05-04T16:57:49.521Z,20.59
2023-05-04T17:00:17.082Z,20.33
2023-05-04T17:02:45.482Z,20.75
2023-05-04T17:05:12.989Z,20.73
2023-05-04T17:07:43.024Z,20.96
2023-05-04T17:10:10.974Z,20.32
2023-05-04T17:12:38.587Z,20.87
2023-05-04T17:15:06.622Z,20.51
2023-05-04T17:17:34.254Z,20.63
2023-05-04T17:20:02.446Z,20.57
2023-05-04T17:22:29.880Z,19.82
2023-05-04T17:24:57.554Z,20.22
2023-05-04T17:27:24.927Z,20.40
2023-05-04T17:29:52.270Z,20.57
2023-05-04T17:32:20.037Z,20.56
2023-05-04T17:34:47.432Z,20.78
2023-05-04T17:37:14.810Z,20.43
2023-05-04T17:39:42.480Z,20.56
2023-05-04T17:42:10.774Z,20.40
2023-05-04T17:44:38.134Z,20.56
2023-05-04T17:47:06.284Z,20.47
2023-05-04T17:49:33.623Z,20.82
2023-05-04T17:52:01.433Z,20.55
2023-05-04T17:54:29.034Z,20.68
2023-05-04T17:56:56.401Z,20.24
2023-05-04T17:59:23.757Z,20.45
2023-05-04T18:01:51.401Z,20.48
2023-05-04T18:04:19.038Z,20.00
2023-05-04T18:06:47.022Z,19.88
2023-05-04T18:09:15.534Z,19.47
2023-05-04T18:11:43.177Z,19.94
2023-05-04T18:14:10.569Z,19.86
2023-05-04T18:16:39.300Z,20.07
2023-05-04T18:19:07.108Z,19.85
2023-05-04T18:21:37.434Z,19.65
2023-05-04T18:24:05.035Z,19.50
2023-05-04T18:26:32.677Z,19.55
2023-05-04T18:29:11.110Z,19.26
2023-05-04T18:31:45.380Z,19.33
2023-05-04T18:34:12.827Z,19.04
2023-05-04T18:36:40.518Z,19.14
2023-05-04T18:39:08.716Z,19.17
2023-05-04T18:41:36.108Z,19.32
2023-05-04T18:44:15.356Z,19.13
2023-05-04T18:46:42.790Z,19.44
2023-05-04T18:49:10.263Z,19.18
2023-05-04T18:51:41.565Z,19.31
2023-05-04T18:54:09.164Z,19.03
2023-05-04T18:56:36.548Z,18.70
2023-05-04T18:59:06.041Z,18.57
2023-05-04T19:01:33.467Z,18.68
2023-05-04T19:04:01.321Z,18.43
2023-05-04T19:06:28.782Z,18.76
2023-05-04T19:08:56.148Z,18.73
2023-05-04T19:11:23.847Z,18.77
2023-05-04T19:13:51.458Z,18.63
2023-05-04T19:16:18.946Z,18.65
2023-05-04T19:18:46.673Z,18.38
2023-05-04T19:21:14.058Z,18.71
2023-05-04T19:23:41.388Z,18.67
2023-05-04T19:26:09.315Z,19.03
2023-05-04T19:28:36.838Z,18.78
2023-05-04T19:31:04.246Z,18.50
2023-05-04T19:33:44.632Z,18.68
2023-05-04T19:36:16.314Z,18.82
2023-05-04T19:38:44.104Z,18.15
2023-05-04T19:41:11.482Z,17.89
2023-05-04T19:43:39.034Z,17.85
2023-05-04T19:46:06.790Z,18.20
2023-05-04T19:48:34.187Z,18.34
2023-05-04T19:51:02.169Z,18.05
2023-05-04T19:53:31.153Z,17.46
2023-05-04T19:55:58.560Z,17.75
2023-05-04T19:58:28.121Z,18.12
2023-05-04T20:00:56.089Z,17.99
2023-05-04T20:03:24.011Z,17.99
2023-05-04T20:05:51.830Z,17.97
2023-05-04T20:08:19.193Z,17.56
2023-05-04T20:10:46.901Z,17.63
2023-05-04T20:13:14.790Z,17.67
2023-05-04T20:15:42.741Z,17.59
2023-05-04T20:18:10.364Z,17.67
2023-05-04T20:20:37.929Z,17.64
2023-05-04T20:23:05.334Z,17.73
2023-05-04T20:25:32.998Z,17.88
2023-05-04T20:28:00.770Z,17.58
2023-05-04T20:30:28.907Z,17.48
2023-05-04T20:32:56.632Z,17.40
2023-05-04T20:35:24.059Z,17.37
2023-05-04T20:37:51.404Z,17.22
2023-05-04T20:40:19.730Z,17.12
2023-05-04T20:42:47.231Z,17.34
2023-05-04T20:45:14.587Z,17.20
2023-05-04T20:47:42.706Z,17.35
2023-05-04T20:50:11.876Z,17.05
2023-05-04T20:52:39.298Z,17.47
2023-05-04T20:55:07.958Z,17.39
2023-05-04T20:57:35.416Z,17.45
2023-05-04T21:00:03.272Z,17.45
2023-05-04T21:02:31.591Z,17.11
2023-05-04T21:04:58.997Z,17.24
2023-05-04T21:07:26.343Z,16.89
2023-05-04T21:09:58.138Z,17.50
2023-05-04T21:12:25.956Z,17.24
2023-05-04T21:14:53.579Z,17.62
2023-05-04T21:17:20.986Z,17.87
2023-05-04T21:19:48.369Z,17.71
2023-05-04T21:22:17.667Z,17.94
2023-05-04T21:24:46.532Z,17.46
2023-05-04T21:27:14.075Z,16.40
2023-05-04T21:29:41.706Z,16.65
2023-05-04T21:32:09.219Z,16.82
2023-05-04T21:34:36.599Z,16.99
2023-05-04T21:37:04.243Z,17.14
2023-05-04T21:39:31.828Z,16.91
2023-05-04T21:41:59.206Z,17.25
2023-05-04T21:44:26.811Z,17.32
2023-05-04T21:46:55.796Z,17.50
2023-05-04T21:49:23.215Z,17.46
2023-05-04T21:51:50.966Z,17.08
2023-05-04T21:54:18.318Z,17.54
2023-05-04T21:56:45.709Z,17.93
2023-05-04T21:59:13.328Z,17.59
2023-05-04T22:01:42.370Z,17.92
2023-05-04T22:04:10.060Z,18.02
2023-05-04T22:06:37.632Z,17.66
2023-05-04T22:09:05.149Z,17.73
2023-05-04T22:11:32.802Z,17.93
2023-05-04T22:14:00.259Z,18.02
2023-05-04T22:16:27.856Z,17.15
2023-05-04T22:18:55.493Z,17.82
2023-05-04T22:21:22.814Z,17.98
2023-05-04T22:23:50.298Z,18.04
2023-05-04T22:26:17.912Z,17.83
2023-05-04T22:28:45.330Z,17.89
2023-05-04T22:31:12.718Z,18.07
2023-05-04T22:33:40.356Z,17.83
2023-05-04T22:36:07.853Z,17.42
2023-05-04T22:38:35.192Z,17.37
2023-05-04T22:41:03.201Z,17.63
2023-05-04T22:43:30.660Z,17.69
2023-05-04T22:45:58.011Z,17.40
2023-05-04T22:48:25.709Z,17.32
2023-05-04T22:50:53.171Z,17.60
2023-05-04T22:53:20.679Z,17.60
2023-05-04T22:55:48.287Z,17.34
2023-05-04T22:58:15.835Z,17.75
2023-05-04T23:00:43.213Z,17.53
2023-05-04T23:03:10.922Z,17.20
2023-05-04T23:05:38.329Z,17.37
2023-05-04T23:08:05.793Z,17.40
2023-05-04T23:10:33.434Z,16.07
2023-05-04T23:13:01.113Z,16.96
2023-05-04T23:15:28.484Z,16.96
2023-05-04T23:17:56.115Z,16.96
2023-05-04T23:20:23.428Z,17.18
2023-05-04T23:22:51.036Z,16.98
2023-05-04T23:25:18.638Z,17.01
2023-05-04T23:27:45.969Z,16.83
2023-05-04T23:30:13.363Z,17.20
2023-05-04T23:32:40.987Z,17.34
2023-05-04T23:35:08.702Z,17.46
2023-05-04T23:37:36.201Z,17.42
2023-05-04T23:40:04.013Z,16.72
2023-05-04T23:42:31.404Z,16.87
2023-05-04T23:44:58.764Z,16.56
2023-05-04T23:47:26.353Z,16.90
2023-05-04T23:49:53.715Z,16.55
2023-05-04T23:52:21.082Z,16.56
2023-05-04T23:54:52.823Z,16.47
2023-05-04T23:57:20.179Z,16.52
2023-05-04T23:59:47.653Z,16.40
